sensor_id;sensor_type;location;lat;lon;timestamp;pressure;altitude;pressure_sealevel;temperature;humidity
5126;BME280;63008;53.112;8.896;2023-03-12T00:00:52;101133.97;;;1.52;83.23
5126;BME280;63008;53.112;8.896;2023-03-12T00:02:54;101141.53;;;1.50;83.21
5126;BME280;63008;53.112;8.896;2023-03-12T00:04:55;101131.50;;;1.40;83.82
5126;BME280;63008;53.112;8.896;2023-03-12T00:06:56;101131.50;;;1.40;83.92
5126;BME280;63008;53.112;8.896;2023-03-12T00:08:58;101136.09;;;1.40;84.06
5126;BME280;63008;53.112;8.896;2023-03-12T00:11:05;101133.97;;;1.42;83.93
5126;BME280;63008;53.112;8.896;2023-03-12T00:13:07;101137.72;;;1.41;83.74
5126;BME280;63008;53.112;8.896;2023-03-12T00:15:08;101135.06;;;1.46;83.61
5126;BME280;63008;53.112;8.896;2023-03-12T00:17:09;101126.66;;;1.42;83.92
5126;BME280;63008;53.112;8.896;2023-03-12T00:19:11;101129.91;;;1.44;83.59
5126;BME280;63008;53.112;8.896;2023-03-12T00:21:13;101133.97;;;1.42;83.81
5126;BME280;63008;53.112;8.896;2023-03-12T00:23:14;101124.72;;;1.38;84.02
5126;BME280;63008;53.112;8.896;2023-03-12T00:25:15;101123.38;;;1.35;83.84
5126;BME280;63008;53.112;8.896;2023-03-12T00:27:16;101124.19;;;1.36;84.01
5126;BME280;63008;53.112;8.896;2023-03-12T00:29:17;101126.09;;;1.35;84.09
5126;BME280;63008;53.112;8.896;2023-03-12T00:31:27;101122.56;;;1.40;83.81
5126;BME280;63008;53.112;8.896;2023-03-12T00:33:29;101121.53;;;1.51;83.09
5126;BME280;63008;53.112;8.896;2023-03-12T00:35:30;101120.94;;;1.39;83.66
5126;BME280;63008;53.112;8.896;2023-03-12T00:37:32;101118.25;;;1.39;84.25
5126;BME280;63008;53.112;8.896;2023-03-12T00:39:33;101120.16;;;1.38;83.96
5126;BME280;63008;53.112;8.896;2023-03-12T00:41:35;101120.13;;;1.33;84.05
5126;BME280;63008;53.112;8.896;2023-03-12T00:43:36;101122.56;;;1.35;84.26
5126;BME280;63008;53.112;8.896;2023-03-12T00:45:36;101120.38;;;1.32;84.02
5126;BME280;63008;53.112;8.896;2023-03-12T00:47:37;101118.50;;;1.32;83.91
5126;BME280;63008;53.112;8.896;2023-03-12T00:49:39;101113.88;;;1.28;84.33
5126;BME280;63008;53.112;8.896;2023-03-12T00:51:39;101122.25;;;1.26;84.40
5126;BME280;63008;53.112;8.896;2023-03-12T00:53:40;101116.84;;;1.31;83.97
5126;BME280;63008;53.112;8.896;2023-03-12T00:55:41;101118.78;;;1.36;83.62
5126;BME280;63008;53.112;8.896;2023-03-12T00:57:42;101115.53;;;1.34;84.06
5126;BME280;63008;53.112;8.896;2023-03-12T00:59:43;101124.41;;;1.29;84.30
5126;BME280;63008;53.112;8.896;2023-03-12T01:01:44;101113.59;;;1.24;84.42
5126;BME280;63008;53.112;8.896;2023-03-12T01:03:46;101114.91;;;1.17;84.74
5126;BME280;63008;53.112;8.896;2023-03-12T01:05:47;101114.69;;;1.23;84.38
5126;BME280;63008;53.112;8.896;2023-03-12T01:07:53;101116.25;;;1.14;84.86
5126;BME280;63008;53.112;8.896;2023-03-12T01:09:54;101112.19;;;1.07;85.11
5126;BME280;63008;53.112;8.896;2023-03-12T01:11:55;101113.19;;;1.01;85.72
5126;BME280;63008;53.112;8.896;2023-03-12T01:13:56;101112.22;;;1.17;85.10
5126;BME280;63008;53.112;8.896;2023-03-12T01:15:57;101110.84;;;1.14;84.79
5126;BME280;63008;53.112;8.896;2023-03-12T01:17:58;101111.97;;;1.18;85.07
5126;BME280;63008;53.112;8.896;2023-03-12T01:19:59;101113.28;;;1.16;84.70
5126;BME280;63008;53.112;8.896;2023-03-12T01:22:00;101116.81;;;1.16;84.81
5126;BME280;63008;53.112;8.896;2023-03-12T01:24:01;101126.31;;;1.24;85.05
5126;BME280;63008;53.112;8.896;2023-03-12T01:26:02;101124.41;;;1.29;84.42
5126;BME280;63008;53.112;8.896;2023-03-12T01:28:03;101125.25;;;1.30;84.10
5126;BME280;63008;53.112;8.896;2023-03-12T01:30:08;101120.84;;;1.19;84.28
5126;BME280;63008;53.112;8.896;2023-03-12T01:32:09;101117.53;;;1.02;84.87
5126;BME280;63008;53.112;8.896;2023-03-12T01:34:11;101126.47;;;1.02;85.07
5126;BME280;63008;53.112;8.896;2023-03-12T01:36:25;101131.59;;;1.04;84.59
5126;BME280;63008;53.112;8.896;2023-03-12T01:38:27;101128.09;;;1.03;85.26
5126;BME280;63008;53.112;8.896;2023-03-12T01:40:28;101131.09;;;1.07;85.20
5126;BME280;63008;53.112;8.896;2023-03-12T01:42:32;101126.69;;;0.96;85.61
5126;BME280;63008;53.112;8.896;2023-03-12T01:44:56;101123.13;;;0.85;85.81
5126;BME280;63008;53.112;8.896;2023-03-12T01:46:57;101121.16;;;0.76;85.96
5126;BME280;63008;53.112;8.896;2023-03-12T01:51:03;101130.34;;;0.75;86.36
5126;BME280;63008;53.112;8.896;2023-03-12T01:53:04;101121.31;;;0.59;86.34
5126;BME280;63008;53.112;8.896;2023-03-12T01:55:06;101121.56;;;0.53;86.73
5126;BME280;63008;53.112;8.896;2023-03-12T01:57:13;101121.47;;;0.43;86.92
5126;BME280;63008;53.112;8.896;2023-03-12T01:59:22;101119.75;;;0.32;87.65
5126;BME280;63008;53.112;8.896;2023-03-12T02:01:24;101107.34;;;0.31;87.95
5126;BME280;63008;53.112;8.896;2023-03-12T02:03:28;101108.97;;;0.32;88.13
5126;BME280;63008;53.112;8.896;2023-03-12T02:05:35;101104.28;;;0.22;88.30
5126;BME280;63008;53.112;8.896;2023-03-12T02:07:43;101106.44;;;0.20;88.59
5126;BME280;63008;53.112;8.896;2023-03-12T02:09:47;101108.63;;;0.23;88.65
5126;BME280;63008;53.112;8.896;2023-03-12T02:11:49;101104.59;;;0.26;88.52
5126;BME280;63008;53.112;8.896;2023-03-12T02:13:50;101103.34;;;0.38;88.54
5126;BME280;63008;53.112;8.896;2023-03-12T02:15:51;101106.91;;;0.44;87.99
5126;BME280;63008;53.112;8.896;2023-03-12T02:17:52;101103.97;;;0.45;88.03
5126;BME280;63008;53.112;8.896;2023-03-12T02:20:00;101108.28;;;0.46;88.05
5126;BME280;63008;53.112;8.896;2023-03-12T02:22:09;101103.44;;;0.48;88.12
5126;BME280;63008;53.112;8.896;2023-03-12T02:24:37;101105.91;;;0.55;87.65
5126;BME280;63008;53.112;8.896;2023-03-12T02:26:41;101101.59;;;0.54;87.83
5126;BME280;63008;53.112;8.896;2023-03-12T02:28:48;101102.09;;;0.51;87.98
5126;BME280;63008;53.112;8.896;2023-03-12T02:30:51;101100.97;;;0.47;88.25
5126;BME280;63008;53.112;8.896;2023-03-12T02:32:54;101109.28;;;0.40;87.94
5126;BME280;63008;53.112;8.896;2023-03-12T02:34:56;101103.84;;;0.30;88.31
5126;BME280;63008;53.112;8.896;2023-03-12T02:36:57;101098.34;;;0.20;88.99
5126;BME280;63008;53.112;8.896;2023-03-12T02:38:58;101100.59;;;0.28;88.86
5126;BME280;63008;53.112;8.896;2023-03-12T02:41:01;101100.59;;;0.28;89.10
5126;BME280;63008;53.112;8.896;2023-03-12T02:43:05;101092.94;;;0.20;89.25
5126;BME280;63008;53.112;8.896;2023-03-12T02:45:06;101096.81;;;0.29;89.24
5126;BME280;63008;53.112;8.896;2023-03-12T02:47:07;101089.28;;;0.36;89.24
5126;BME280;63008;53.112;8.896;2023-03-12T02:49:09;101092.53;;;0.38;88.37
5126;BME280;63008;53.112;8.896;2023-03-12T02:51:12;101095.78;;;0.35;88.29
5126;BME280;63008;53.112;8.896;2023-03-12T02:53:13;101094.19;;;0.39;88.27
5126;BME280;63008;53.112;8.896;2023-03-12T02:55:14;101096.94;;;0.44;88.15
5126;BME280;63008;53.112;8.896;2023-03-12T02:57:15;101097.47;;;0.46;88.02
5126;BME280;63008;53.112;8.896;2023-03-12T02:59:17;101094.72;;;0.41;87.88
5126;BME280;63008;53.112;8.896;2023-03-12T03:01:20;101093.44;;;0.49;87.73
5126;BME280;63008;53.112;8.896;2023-03-12T03:03:21;101090.72;;;0.49;87.89
5126;BME280;63008;53.112;8.896;2023-03-12T03:05:22;101091.78;;;0.43;88.01
5126;BME280;63008;53.112;8.896;2023-03-12T03:07:23;101097.44;;;0.41;87.98
5126;BME280;63008;53.112;8.896;2023-03-12T03:09:24;101096.09;;;0.44;87.88
5126;BME280;63008;53.112;8.896;2023-03-12T03:11:25;101099.91;;;0.48;87.70
5126;BME280;63008;53.112;8.896;2023-03-12T03:13:26;101088.00;;;0.44;87.75
5126;BME280;63008;53.112;8.896;2023-03-12T03:15:27;101083.94;;;0.41;88.10
5126;BME280;63008;53.112;8.896;2023-03-12T03:17:28;101084.47;;;0.43;88.12
5126;BME280;63008;53.112;8.896;2023-03-12T03:19:32;101084.78;;;0.47;87.54
5126;BME280;63008;53.112;8.896;2023-03-12T03:21:33;101086.41;;;0.48;87.40
5126;BME280;63008;53.112;8.896;2023-03-12T03:23:35;101085.56;;;0.42;87.37
5126;BME280;63008;53.112;8.896;2023-03-12T03:25:36;101090.47;;;0.45;87.56
5126;BME280;63008;53.112;8.896;2023-03-12T03:27:37;101084.53;;;0.48;87.55
5126;BME280;63008;53.112;8.896;2023-03-12T03:29:38;101093.16;;;0.45;87.39
5126;BME280;63008;53.112;8.896;2023-03-12T03:31:39;101085.81;;;0.36;87.78
5126;BME280;63008;53.112;8.896;2023-03-12T03:33:41;101092.03;;;0.41;87.73
5126;BME280;63008;53.112;8.896;2023-03-12T03:35:42;101089.38;;;0.46;87.67
5126;BME280;63008;53.112;8.896;2023-03-12T03:37:43;101086.16;;;0.49;87.69
5126;BME280;63008;53.112;8.896;2023-03-12T03:39:44;101084.47;;;0.43;87.65
5126;BME280;63008;53.112;8.896;2023-03-12T03:41:45;101087.47;;;0.42;87.28
5126;BME280;63008;53.112;8.896;2023-03-12T03:43:46;101083.69;;;0.43;87.52
5126;BME280;63008;53.112;8.896;2023-03-12T03:45:48;101080.44;;;0.41;87.52
5126;BME280;63008;53.112;8.896;2023-03-12T03:47:49;101085.28;;;0.39;87.46
5126;BME280;63008;53.112;8.896;2023-03-12T03:49:50;101096.31;;;0.37;87.52
5126;BME280;63008;53.112;8.896;2023-03-12T03:51:51;101095.53;;;0.37;87.79
5126;BME280;63008;53.112;8.896;2023-03-12T03:53:52;101092.53;;;0.33;87.76
5126;BME280;63008;53.112;8.896;2023-03-12T03:55:53;101093.06;;;0.35;87.70
5126;BME280;63008;53.112;8.896;2023-03-12T03:57:54;101096.88;;;0.39;87.66
5126;BME280;63008;53.112;8.896;2023-03-12T03:59:55;101094.69;;;0.36;87.35
5126;BME280;63008;53.112;8.896;2023-03-12T04:01:58;101077.94;;;0.34;87.42
5126;BME280;63008;53.112;8.896;2023-03-12T04:03:59;101089.31;;;0.41;87.49
5126;BME280;63008;53.112;8.896;2023-03-12T04:06:02;101092.34;;;0.50;87.38
5126;BME280;63008;53.112;8.896;2023-03-12T04:08:04;101089.16;;;0.53;87.22
5126;BME280;63008;53.112;8.896;2023-03-12T04:10:05;101087.81;;;0.55;87.23
5126;BME280;63008;53.112;8.896;2023-03-12T04:12:07;101092.91;;;0.52;87.09
5126;BME280;63008;53.112;8.896;2023-03-12T04:14:08;101081.63;;;0.55;87.12
5126;BME280;63008;53.112;8.896;2023-03-12T04:16:09;101086.75;;;0.61;87.14
5126;BME280;63008;53.112;8.896;2023-03-12T04:18:11;101087.25;;;0.48;87.24
5126;BME280;63008;53.112;8.896;2023-03-12T04:20:12;101090.19;;;0.47;87.51
5126;BME280;63008;53.112;8.896;2023-03-12T04:22:13;101085.63;;;0.52;87.20
5126;BME280;63008;53.112;8.896;2023-03-12T04:24:15;101081.09;;;0.58;87.00
5126;BME280;63008;53.112;8.896;2023-03-12T04:26:16;101085.13;;;0.55;86.69
5126;BME280;63008;53.112;8.896;2023-03-12T04:28:17;101082.72;;;0.59;86.53
5126;BME280;63008;53.112;8.896;2023-03-12T04:30:18;101074.88;;;0.57;86.31
5126;BME280;63008;53.112;8.896;2023-03-12T04:32:19;101078.94;;;0.60;86.05
5126;BME280;63008;53.112;8.896;2023-03-12T04:34:20;101073.78;;;0.58;86.15
5126;BME280;63008;53.112;8.896;2023-03-12T04:36:22;101065.13;;;0.51;86.55
5126;BME280;63008;53.112;8.896;2023-03-12T04:38:24;101068.91;;;0.50;86.89
5126;BME280;63008;53.112;8.896;2023-03-12T04:40:25;101067.53;;;0.48;86.93
5126;BME280;63008;53.112;8.896;2023-03-12T04:42:26;101072.16;;;0.52;86.71
5126;BME280;63008;53.112;8.896;2023-03-12T04:44:27;101064.56;;;0.49;86.80
5126;BME280;63008;53.112;8.896;2023-03-12T04:46:28;101062.44;;;0.51;86.87
5126;BME280;63008;53.112;8.896;2023-03-12T04:48:29;101061.88;;;0.49;87.02
5126;BME280;63008;53.112;8.896;2023-03-12T04:50:30;101064.56;;;0.49;87.34
5126;BME280;63008;53.112;8.896;2023-03-12T04:52:31;101057.28;;;0.50;87.41
5126;BME280;63008;53.112;8.896;2023-03-12T04:54:33;101056.19;;;0.51;87.34
5126;BME280;63008;53.112;8.896;2023-03-12T04:56:34;101061.31;;;0.47;87.06
5126;BME280;63008;53.112;8.896;2023-03-12T04:58:35;101054.53;;;0.45;86.95
5126;BME280;63008;53.112;8.896;2023-03-12T05:00:38;101055.31;;;0.40;87.02
5126;BME280;63008;53.112;8.896;2023-03-12T05:02:40;101054.25;;;0.41;87.09
5126;BME280;63008;53.112;8.896;2023-03-12T05:04:41;101054.00;;;0.43;87.04
5126;BME280;63008;53.112;8.896;2023-03-12T05:06:42;101039.97;;;0.41;86.62
5126;BME280;63008;53.112;8.896;2023-03-12T05:08:43;101045.31;;;0.36;86.82
5126;BME280;63008;53.112;8.896;2023-03-12T05:10:44;101038.81;;;0.32;87.06
5126;BME280;63008;53.112;8.896;2023-03-12T05:12:45;101042.88;;;0.34;87.59
5126;BME280;63008;53.112;8.896;2023-03-12T05:14:46;101036.41;;;0.35;87.22
5126;BME280;63008;53.112;8.896;2023-03-12T05:16:47;101028.53;;;0.29;87.16
5126;BME280;63008;53.112;8.896;2023-03-12T05:18:48;101028.84;;;0.32;87.43
5126;BME280;63008;53.112;8.896;2023-03-12T05:21:06;101034.53;;;0.36;87.21
5126;BME280;63008;53.112;8.896;2023-03-12T05:23:07;101027.25;;;0.36;87.48
5126;BME280;63008;53.112;8.896;2023-03-12T05:25:09;101029.72;;;0.43;86.96
5126;BME280;63008;53.112;8.896;2023-03-12T05:27:10;101020.28;;;0.45;87.00
5126;BME280;63008;53.112;8.896;2023-03-12T05:29:11;101024.88;;;0.50;86.91
5126;BME280;63008;53.112;8.896;2023-03-12T05:31:16;101017.34;;;0.52;86.34
5126;BME280;63008;53.112;8.896;2023-03-12T05:33:18;101013.59;;;0.53;86.31
5126;BME280;63008;53.112;8.896;2023-03-12T05:35:19;101009.00;;;0.53;86.11
5126;BME280;63008;53.112;8.896;2023-03-12T05:37:20;101014.38;;;0.53;85.79
5126;BME280;63008;53.112;8.896;2023-03-12T05:39:21;101008.44;;;0.46;86.14
5126;BME280;63008;53.112;8.896;2023-03-12T05:41:27;101006.53;;;0.52;86.01
5126;BME280;63008;53.112;8.896;2023-03-12T05:43:28;101008.69;;;0.50;85.98
5126;BME280;63008;53.112;8.896;2023-03-12T05:45:31;100997.13;;;0.54;85.65
5126;BME280;63008;53.112;8.896;2023-03-12T05:47:32;100997.94;;;0.55;85.75
5126;BME280;63008;53.112;8.896;2023-03-12T05:49:33;101002.50;;;0.49;85.31
5126;BME280;63008;53.112;8.896;2023-03-12T05:51:34;101001.66;;;0.49;85.64
5126;BME280;63008;53.112;8.896;2023-03-12T05:53:35;101002.22;;;0.51;85.39
5126;BME280;63008;53.112;8.896;2023-03-12T05:55:38;101000.38;;;0.56;85.03
5126;BME280;63008;53.112;8.896;2023-03-12T05:57:39;101002.28;;;0.56;84.73
5126;BME280;63008;53.112;8.896;2023-03-12T05:59:40;101002.53;;;0.59;84.65
5126;BME280;63008;53.112;8.896;2023-03-12T06:01:41;101003.66;;;0.63;84.14
5126;BME280;63008;53.112;8.896;2023-03-12T06:03:42;101000.13;;;0.58;84.11
5126;BME280;63008;53.112;8.896;2023-03-12T06:05:44;100994.72;;;0.63;83.96
5126;BME280;63008;53.112;8.896;2023-03-12T06:07:48;100996.66;;;0.67;83.62
5126;BME280;63008;53.112;8.896;2023-03-12T06:09:49;100994.25;;;0.71;83.75
5126;BME280;63008;53.112;8.896;2023-03-12T06:11:50;101002.06;;;0.72;83.10
5126;BME280;63008;53.112;8.896;2023-03-12T06:13:51;100999.13;;;0.74;82.48
5126;BME280;63008;53.112;8.896;2023-03-12T06:15:52;101006.91;;;0.70;82.87
5126;BME280;63008;53.112;8.896;2023-03-12T06:17:53;100999.91;;;0.74;82.89
5126;BME280;63008;53.112;8.896;2023-03-12T06:19:54;100999.13;;;0.74;82.18
5126;BME280;63008;53.112;8.896;2023-03-12T06:21:55;101004.53;;;0.79;82.40
5126;BME280;63008;53.112;8.896;2023-03-12T06:23:57;100990.50;;;0.82;81.76
5126;BME280;63008;53.112;8.896;2023-03-12T06:25:58;100996.75;;;0.87;81.81
5126;BME280;63008;53.112;8.896;2023-03-12T06:27:59;100990.81;;;0.90;81.61
5126;BME280;63008;53.112;8.896;2023-03-12T06:30:00;100992.19;;;0.93;81.05
5126;BME280;63008;53.112;8.896;2023-03-12T06:32:01;100993.50;;;0.90;80.85
5126;BME280;63008;53.112;8.896;2023-03-12T06:34:02;100989.16;;;0.84;80.63
5126;BME280;63008;53.112;8.896;2023-03-12T06:36:06;100994.03;;;0.87;80.86
5126;BME280;63008;53.112;8.896;2023-03-12T06:38:07;100988.66;;;0.92;80.49
5126;BME280;63008;53.112;8.896;2023-03-12T06:40:09;100982.47;;;0.97;80.32
5126;BME280;63008;53.112;8.896;2023-03-12T06:42:10;100979.75;;;1.02;79.94
5126;BME280;63008;53.112;8.896;2023-03-12T06:44:12;100979.22;;;0.95;80.01
5126;BME280;63008;53.112;8.896;2023-03-12T06:46:16;100966.25;;;0.97;79.38
5126;BME280;63008;53.112;8.896;2023-03-12T06:48:18;100971.94;;;1.05;79.76
5126;BME280;63008;53.112;8.896;2023-03-12T06:50:19;100975.50;;;1.16;78.91
5126;BME280;63008;53.112;8.896;2023-03-12T06:52:20;100971.72;;;1.17;78.52
5126;BME280;63008;53.112;8.896;2023-03-12T06:54:21;100968.75;;;1.18;78.08
5126;BME280;63008;53.112;8.896;2023-03-12T06:56:22;100973.06;;;1.29;78.22
5126;BME280;63008;53.112;8.896;2023-03-12T06:58:23;100977.69;;;1.39;77.86
5126;BME280;63008;53.112;8.896;2023-03-12T07:00:24;100970.44;;;1.54;77.06
5126;BME280;63008;53.112;8.896;2023-03-12T07:02:25;100972.34;;;1.59;76.43
5126;BME280;63008;53.112;8.896;2023-03-12T07:04:26;100973.38;;;1.53;76.82
5126;BME280;63008;53.112;8.896;2023-03-12T07:06:27;100968.81;;;1.63;76.03
5126;BME280;63008;53.112;8.896;2023-03-12T07:08:28;100965.56;;;1.56;75.62
5126;BME280;63008;53.112;8.896;2023-03-12T07:10:32;100979.63;;;1.63;76.03
5126;BME280;63008;53.112;8.896;2023-03-12T07:12:33;100975.84;;;1.69;75.63
5126;BME280;63008;53.112;8.896;2023-03-12T07:14:34;100985.81;;;1.54;74.59
5126;BME280;63008;53.112;8.896;2023-03-12T07:16:35;100971.75;;;1.52;75.84
5126;BME280;63008;53.112;8.896;2023-03-12T07:18:36;100973.13;;;1.74;75.17
5126;BME280;63008;53.112;8.896;2023-03-12T07:20:39;100971.50;;;1.83;74.14
5126;BME280;63008;53.112;8.896;2023-03-12T07:22:41;100974.22;;;1.98;73.70
5126;BME280;63008;53.112;8.896;2023-03-12T07:24:42;100972.03;;;2.00;73.08
5126;BME280;63008;53.112;8.896;2023-03-12T07:26:43;100972.00;;;2.20;73.25
5126;BME280;63008;53.112;8.896;2023-03-12T07:28:45;100967.94;;;2.27;72.91
5126;BME280;63008;53.112;8.896;2023-03-12T07:30:47;100955.44;;;2.46;72.21
5126;BME280;63008;53.112;8.896;2023-03-12T07:32:51;100949.78;;;2.43;72.09
5126;BME280;63008;53.112;8.896;2023-03-12T07:34:52;100951.13;;;2.40;72.72
5126;BME280;63008;53.112;8.896;2023-03-12T07:36:53;100944.91;;;2.40;72.49
5126;BME280;63008;53.112;8.896;2023-03-12T07:38:54;100946.50;;;2.51;71.79
5126;BME280;63008;53.112;8.896;2023-03-12T07:40:56;100948.09;;;2.62;71.02
5126;BME280;63008;53.112;8.896;2023-03-12T07:42:58;100947.78;;;2.63;70.90
5126;BME280;63008;53.112;8.896;2023-03-12T07:44:59;100951.91;;;2.56;70.95
5126;BME280;63008;53.112;8.896;2023-03-12T07:47:00;100948.94;;;2.52;71.10
5126;BME280;63008;53.112;8.896;2023-03-12T07:49:01;100941.88;;;2.46;71.63
5126;BME280;63008;53.112;8.896;2023-03-12T07:51:02;100954.91;;;2.44;71.33
5126;BME280;63008;53.112;8.896;2023-03-12T07:53:04;100951.66;;;2.47;71.07
5126;BME280;63008;53.112;8.896;2023-03-12T07:55:06;100955.72;;;2.45;70.75
5126;BME280;63008;53.112;8.896;2023-03-12T07:57:07;100960.03;;;2.51;70.68
5126;BME280;63008;53.112;8.896;2023-03-12T07:59:08;100954.00;;;2.69;70.08
5126;BME280;63008;53.112;8.896;2023-03-12T08:01:09;100955.88;;;2.78;69.67
5126;BME280;63008;53.112;8.896;2023-03-12T08:03:11;100960.97;;;2.85;70.02
5126;BME280;63008;53.112;8.896;2023-03-12T08:05:11;100966.41;;;2.85;69.23
5126;BME280;63008;53.112;8.896;2023-03-12T08:07:13;100970.16;;;2.89;69.87
5126;BME280;63008;53.112;8.896;2023-03-12T08:09:14;100963.38;;;2.96;69.01
5126;BME280;63008;53.112;8.896;2023-03-12T08:11:15;100961.47;;;2.97;68.95
5126;BME280;63008;53.112;8.896;2023-03-12T08:13:16;100958.44;;;3.08;68.70
5126;BME280;63008;53.112;8.896;2023-03-12T08:15:18;100962.53;;;3.01;69.21
5126;BME280;63008;53.112;8.896;2023-03-12T08:17:20;100970.34;;;3.12;68.65
5126;BME280;63008;53.112;8.896;2023-03-12T08:19:21;100960.06;;;3.09;68.86
5126;BME280;63008;53.112;8.896;2023-03-12T08:21:22;100959.00;;;3.05;68.98
5126;BME280;63008;53.112;8.896;2023-03-12T08:23:24;100949.78;;;3.06;68.51
5126;BME280;63008;53.112;8.896;2023-03-12T08:25:26;100949.69;;;3.16;68.06
5126;BME280;63008;53.112;8.896;2023-03-12T08:27:28;100954.47;;;3.34;67.66
5126;BME280;63008;53.112;8.896;2023-03-12T08:29:29;100944.66;;;3.43;68.09
5126;BME280;63008;53.112;8.896;2023-03-12T08:31:30;100936.47;;;3.48;67.96
5126;BME280;63008;53.112;8.896;2023-03-12T08:33:31;100942.09;;;3.61;67.85
5126;BME280;63008;53.112;8.896;2023-03-12T08:35:32;100941.78;;;3.63;66.87
5126;BME280;63008;53.112;8.896;2023-03-12T08:37:33;100934.75;;;3.62;67.26
5126;BME280;63008;53.112;8.896;2023-03-12T08:39:34;100934.69;;;3.67;66.80
5126;BME280;63008;53.112;8.896;2023-03-12T08:41:35;100919.97;;;3.78;66.32
5126;BME280;63008;53.112;8.896;2023-03-12T08:43:36;100922.81;;;3.91;65.17
5126;BME280;63008;53.112;8.896;2023-03-12T08:45:37;100931.66;;;4.07;65.33
5126;BME280;63008;53.112;8.896;2023-03-12T08:47:41;100935.97;;;4.08;64.69
5126;BME280;63008;53.112;8.896;2023-03-12T08:49:43;100928.28;;;4.15;64.47
5126;BME280;63008;53.112;8.896;2023-03-12T08:51:44;100927.25;;;4.11;63.93
5126;BME280;63008;53.112;8.896;2023-03-12T08:53:45;100924.72;;;4.19;64.11
5126;BME280;63008;53.112;8.896;2023-03-12T08:55:46;100920.91;;;4.20;64.30
5126;BME280;63008;53.112;8.896;2023-03-12T08:57:48;100924.00;;;4.37;63.35
5126;BME280;63008;53.112;8.896;2023-03-12T08:59:49;100911.25;;;4.33;63.08
5126;BME280;63008;53.112;8.896;2023-03-12T09:01:50;100918.06;;;4.30;63.40
5126;BME280;63008;53.112;8.896;2023-03-12T09:03:51;100917.53;;;4.33;62.40
5126;BME280;63008;53.112;8.896;2023-03-12T09:06:06;100903.78;;;4.67;63.35
5126;BME280;63008;53.112;8.896;2023-03-12T09:08:10;100907.34;;;4.86;61.65
5126;BME280;63008;53.112;8.896;2023-03-12T09:10:21;100903.84;;;4.85;62.59
5126;BME280;63008;53.112;8.896;2023-03-12T09:12:23;100900.28;;;4.85;62.41
5126;BME280;63008;53.112;8.896;2023-03-12T09:14:27;100888.50;;;4.71;61.81
5126;BME280;63008;53.112;8.896;2023-03-12T09:16:34;100885.25;;;4.50;62.73
5126;BME280;63008;53.112;8.896;2023-03-12T09:18:42;100877.91;;;4.51;62.82
5126;BME280;63008;53.112;8.896;2023-03-12T09:20:44;100884.69;;;4.72;62.20
5126;BME280;63008;53.112;8.896;2023-03-12T09:22:48;100878.16;;;4.73;62.33
5126;BME280;63008;53.112;8.896;2023-03-12T09:24:52;100880.75;;;4.83;61.64
5126;BME280;63008;53.112;8.896;2023-03-12T09:26:53;100863.84;;;4.86;61.82
5126;BME280;63008;53.112;8.896;2023-03-12T09:28:54;100863.41;;;4.97;60.93
5126;BME280;63008;53.112;8.896;2023-03-12T09:31:00;100862.91;;;4.95;61.67
5126;BME280;63008;53.112;8.896;2023-03-12T09:33:01;100860.19;;;4.95;61.05
5126;BME280;63008;53.112;8.896;2023-03-12T09:35:03;100856.94;;;4.93;61.36
5126;BME280;63008;53.112;8.896;2023-03-12T09:37:04;100845.13;;;5.03;60.87
5126;BME280;63008;53.112;8.896;2023-03-12T09:39:05;100828.72;;;5.08;61.50
5126;BME280;63008;53.112;8.896;2023-03-12T09:41:16;100824.97;;;5.04;62.48
5126;BME280;63008;53.112;8.896;2023-03-12T09:43:28;100820.91;;;5.20;60.94
5126;BME280;63008;53.112;8.896;2023-03-12T09:45:37;100822.41;;;5.12;61.08
5126;BME280;63008;53.112;8.896;2023-03-12T09:48:04;100817.91;;;5.21;60.76
5126;BME280;63008;53.112;8.896;2023-03-12T09:50:20;100821.66;;;5.57;60.02
5126;BME280;63008;53.112;8.896;2023-03-12T09:52:33;100820.41;;;5.49;58.93
5126;BME280;63008;53.112;8.896;2023-03-12T09:54:46;100822.06;;;5.32;59.84
5126;BME280;63008;53.112;8.896;2023-03-12T09:56:54;100823.09;;;5.36;59.87
5126;BME280;63008;53.112;8.896;2023-03-12T09:58:55;100819.09;;;5.47;59.83
5126;BME280;63008;53.112;8.896;2023-03-12T10:01:12;100810.56;;;5.53;59.25
5126;BME280;63008;53.112;8.896;2023-03-12T10:05:46;100793.72;;;5.51;57.96
5126;BME280;63008;53.112;8.896;2023-03-12T10:08:03;100796.06;;;5.58;58.64
5126;BME280;63008;53.112;8.896;2023-03-12T10:10:16;100798.38;;;5.64;58.19
5126;BME280;63008;53.112;8.896;2023-03-12T10:12:33;100792.66;;;5.79;58.14
5126;BME280;63008;53.112;8.896;2023-03-12T10:19:43;100793.00;;;5.91;57.72
5126;BME280;63008;53.112;8.896;2023-03-12T10:22:09;100776.34;;;5.93;57.68
5126;BME280;63008;53.112;8.896;2023-03-12T10:26:42;100755.66;;;5.78;57.64
5126;BME280;63008;53.112;8.896;2023-03-12T10:28:46;100757.06;;;5.76;58.16
5126;BME280;63008;53.112;8.896;2023-03-12T10:30:56;100749.81;;;5.98;58.26
5126;BME280;63008;53.112;8.896;2023-03-12T10:33:00;100744.16;;;6.08;58.02
5126;BME280;63008;53.112;8.896;2023-03-12T10:35:18;100738.69;;;6.22;57.97
5126;BME280;63008;53.112;8.896;2023-03-12T10:37:22;100733.44;;;6.25;58.21
5126;BME280;63008;53.112;8.896;2023-03-12T10:39:25;100734.69;;;6.19;58.23
5126;BME280;63008;53.112;8.896;2023-03-12T10:41:30;100733.94;;;6.27;57.71
5126;BME280;63008;53.112;8.896;2023-03-12T10:43:33;100734.34;;;6.34;57.64
5126;BME280;63008;53.112;8.896;2023-03-12T10:46:14;100724.53;;;6.33;57.86
5126;BME280;63008;53.112;8.896;2023-03-12T10:48:24;100716.91;;;6.22;57.09
5126;BME280;63008;53.112;8.896;2023-03-12T10:50:30;100709.75;;;6.12;57.95
5126;BME280;63008;53.112;8.896;2023-03-12T10:52:32;100709.75;;;6.12;58.45
5126;BME280;63008;53.112;8.896;2023-03-12T10:54:38;100708.06;;;6.03;58.54
5126;BME280;63008;53.112;8.896;2023-03-12T10:56:49;100703.09;;;6.05;58.52
5126;BME280;63008;53.112;8.896;2023-03-12T10:58:52;100705.25;;;6.08;58.00
5126;BME280;63008;53.112;8.896;2023-03-12T11:00:56;100707.88;;;5.99;58.18
5126;BME280;63008;53.112;8.896;2023-03-12T11:03:18;100713.03;;;5.87;58.32
5126;BME280;63008;53.112;8.896;2023-03-12T11:05:24;100717.13;;;5.71;59.60
5126;BME280;63008;53.112;8.896;2023-03-12T11:07:30;100708.28;;;5.79;59.01
5126;BME280;63008;53.112;8.896;2023-03-12T11:09:32;100704.75;;;5.79;59.33
5126;BME280;63008;53.112;8.896;2023-03-12T11:11:35;100701.91;;;5.84;59.17